Shenandoah, IA

5:24 AM CDT on August 04, 2015 (GMT -0500)
Shenandoah Municipal | | Change Station
CLOSE
Current Station
Airport
Location: Shenandoah,
Elevation: 971 ft
Nearby Weather Stations

Elev 971 ft 40.75 °N, 95.41 °W | Updated 9 minutes ago

Mostly Cloudy
Mostly Cloudy
68 °F
Feels Like 68 °F
N
4
Wind Variable Wind from NE

Today
High -- | Low -- °F
--% Chance of Precip.
Yesterday
High -- | Low -- °F
Precip. -- in
6:20 AM 8:33 PM
Waning Gibbous, 79% visible
Pressure 29.96 in
Visibility 10.0 miles
Clouds Mostly Cloudy 5000 ft
Mostly Cloudy 5500 ft
Mostly Cloudy 6500 ft
Dew Point 64 °F
Humidity 88%
Rainfall 0.01 in
Snow Depth Not available.
UV 0 out of 12
Pollen 7.40 out of 12
Air Quality Not available.
Flu Activity Not available.
METAR KSDA 041015Z AUTO 05003KT 10SM BKN050 BKN055 BKN065 20/18 A2996 RMK AO2

More Conditions Fewer Conditions

Pressure 29.96 in
Visibility 10.0 miles
Clouds Mostly Cloudy 5000 ft
Mostly Cloudy 5500 ft
Mostly Cloudy 6500 ft
Dew Point 64 °F
Humidity 88%
Rainfall 0.01 in
Snow Depth Not available.
UV 0 out of 12
Pollen 7.40 out of 12
Air Quality Not available.
Flu Activity Not available.
METAR KSDA 041015Z AUTO 05003KT 10SM BKN050 BKN055 BKN065 20/18 A2996 RMK AO2

More Conditions Fewer Conditions

10-Day Weather Forecast

×

Almanac

Astronomy

Aug. 04, 2015 Rise Set
Actual Time
Civil Twilight
Nautical Twilight
Astronomical Twilight
Moon
Length of Visible Light
Length of Day
Tomorrow will be .
, % of the Moon is Illuminated

Today's Extremes

State Highs State Lows

Community

WunderPhotos

Upload Photos

1,843,883 photos uploaded!

WunderBlogs® & News

Nearby

Air Quality

  Air Quality AQ Index Pollutant
Not available.

Snow Depth

Station Depth Elevation

Earthquake Activity

City Distance Mag. Time & Date
Minimum magnitude displayed is 2.5.

Coastal Water Temperatures

Place Temperature

Stations

Nearby Weather Stations

Station Location Temp. Windchill Dew Point Humidity Wind Precip. Elev Updated Type